Time;durP1;ratioP1;P1;durP2;ratioP2;P2;SDS_P1;SDS_P2;PMS_P1;PMS_P2;Temp;Humidity;BMP_temperature;BMP_pressure;BME280_temperature;BME280_humidity;BME280_pressure;Samples;Min_cycle;Max_cycle;Signal;HPM_P1;HPM_P2
2022/10/15 00:00:18;;;;;;;;;4.00;4.00;;;;;;;;5062122;28;45459;-77
2022/10/15 00:02:43;;;;;;;;;5.67;4.33;;;;;;;;5067360;27;45474;-78
2022/10/15 00:05:10;;;;;;;;;5.00;5.00;;;;;;;;5101905;27;45667;-76
2022/10/15 00:07:36;;;;;;;;;3.67;3.67;;;;;;;;5053386;28;45517;-79
2022/10/15 00:10:01;;;;;;;;;4.67;4.67;;;;;;;;5084269;27;45636;-78
2022/10/15 00:12:27;;;;;;;;;8.00;6.33;;;;;;;;5061749;28;47037;-77
2022/10/15 00:15:13;;;;;;;;;6.00;5.00;;;;;;;;5077647;27;45413;-78
2022/10/15 00:17:39;;;;;;;;;6.33;4.67;;;;;;;;5078821;28;45565;-77
2022/10/15 00:20:05;;;;;;;;;4.33;3.67;;;;;;;;5077517;28;45455;-78
2022/10/15 00:22:31;;;;;;;;;10.67;7.00;;;;;;;;5078245;28;45895;-77
2022/10/15 00:24:56;;;;;;;;;6.00;6.00;;;;;;;;5091974;27;46570;-77
2022/10/15 00:27:21;;;;;;;;;7.00;6.33;;;;;;;;5088079;27;45485;-77
2022/10/15 00:29:47;;;;;;;;;9.00;8.00;;;;;;;;5066512;28;45524;-77
2022/10/15 00:32:13;;;;;;;;;9.00;6.00;;;;;;;;5072213;28;45539;-78
2022/10/15 00:34:38;;;;;;;;;4.67;3.67;;;;;;;;5078651;27;45645;-78
2022/10/15 00:37:04;;;;;;;;;6.00;4.67;;;;;;;;5061246;28;45312;-79
2022/10/15 00:39:29;;;;;;;;;8.33;7.67;;;;;;;;5074197;27;45848;-78
2022/10/15 00:41:55;;;;;;;;;4.00;4.00;;;;;;;;5075776;28;45702;-78
2022/10/15 00:44:20;;;;;;;;;7.00;7.00;;;;;;;;5068759;27;46314;-77
2022/10/15 00:46:47;;;;;;;;;5.33;5.33;;;;;;;;5082310;27;45809;-77
2022/10/15 00:49:48;;;;;;;;;7.00;6.00;;;;;;;;5086655;27;45806;-79
2022/10/15 00:52:16;;;;;;;;;6.67;6.67;;;;;;;;4997495;28;45524;-78
2022/10/15 00:54:46;;;;;;;;;7.67;6.67;;;;;;;;5065507;28;46316;-78
2022/10/15 00:57:12;;;;;;;;;5.33;5.00;;;;;;;;5061351;28;45402;-77
2022/10/15 00:59:40;;;;;;;;;7.00;7.00;;;;;;;;5079700;28;45378;-79
2022/10/15 01:02:06;;;;;;;;;5.00;4.67;;;;;;;;5090759;27;45342;-80
2022/10/15 01:04:32;;;;;;;;;8.33;5.00;;;;;;;;5085028;27;46460;-82
2022/10/15 01:06:57;;;;;;;;;7.33;6.00;;;;;;;;5067805;27;45813;-79
2022/10/15 01:09:25;;;;;;;;;4.67;4.67;;;;;;;;5081765;27;45406;-82
2022/10/15 01:11:51;;;;;;;;;7.33;4.00;;;;;;;;5084578;27;45495;-80
2022/10/15 01:14:40;;;;;;;;;6.00;6.00;;;;;;;;5062884;28;47670;-81
2022/10/15 01:17:12;;;;;;;;;5.00;5.00;;;;;;;;5074508;27;45534;-81
2022/10/15 01:19:37;;;;;;;;;5.00;5.00;;;;;;;;5085010;27;45409;-81
2022/10/15 01:22:26;;;;;;;;;6.00;5.00;;;;;;;;5074422;28;45530;-80
2022/10/15 01:25:00;;;;;;;;;5.00;5.00;;;;;;;;5075474;27;45747;-80
2022/10/15 01:27:32;;;;;;;;;7.00;5.00;;;;;;;;5090773;27;45389;-81
2022/10/15 01:30:04;;;;;;;;;5.00;4.00;;;;;;;;5079536;28;45366;-81
2022/10/15 01:32:37;;;;;;;;;3.67;3.67;;;;;;;;5082703;27;45427;-80
2022/10/15 01:35:09;;;;;;;;;2.00;2.00;;;;;;;;5066331;28;46578;-80
2022/10/15 01:37:34;;;;;;;;;4.00;4.00;;;;;;;;5081790;27;45458;-81
2022/10/15 01:40:03;;;;;;;;;3.33;2.33;;;;;;;;5073935;28;44729;-81
2022/10/15 01:42:36;;;;;;;;;3.33;2.33;;;;;;;;5074900;27;45433;-80
2022/10/15 01:45:06;;;;;;;;;4.75;2.50;;;;;;;;5083404;28;45378;-80
2022/10/15 01:47:34;;;;;;;;;2.00;2.00;;;;;;;;5098636;27;45427;-81
2022/10/15 01:50:01;;;;;;;;;4.00;2.00;;;;;;;;5071866;27;45425;-80
2022/10/15 01:52:29;;;;;;;;;5.00;2.00;;;;;;;;5078823;27;45028;-82
2022/10/15 01:54:54;;;;;;;;;5.00;3.00;;;;;;;;5086622;27;46226;-82
2022/10/15 01:57:22;;;;;;;;;2.00;2.00;;;;;;;;5077318;28;45343;-78
2022/10/15 01:59:48;;;;;;;;;2.00;2.00;;;;;;;;5077980;28;45374;-80
2022/10/15 02:02:13;;;;;;;;;2.67;2.33;;;;;;;;5075869;27;45919;-81
2022/10/15 02:04:39;;;;;;;;;2.00;2.00;;;;;;;;5061103;27;46292;-80
2022/10/15 02:07:07;;;;;;;;;3.25;2.25;;;;;;;;5067864;27;45713;-78
2022/10/15 02:09:46;;;;;;;;;1.50;1.50;;;;;;;;5081665;27;45446;-79
2022/10/15 02:12:11;;;;;;;;;2.25;2.25;;;;;;;;5070351;27;46032;-80
2022/10/15 02:14:43;;;;;;;;;2.67;2.67;;;;;;;;5081383;27;46938;-79
2022/10/15 02:17:10;;;;;;;;;4.00;4.00;;;;;;;;5081735;27;45214;-78
2022/10/15 02:19:50;;;;;;;;;2.33;2.33;;;;;;;;5077854;27;45751;-78
2022/10/15 02:22:15;;;;;;;;;2.50;2.00;;;;;;;;5074839;27;45653;-79
2022/10/15 02:24:58;;;;;;;;;3.00;3.00;;;;;;;;5069469;28;45404;-79
2022/10/15 02:27:25;;;;;;;;;3.00;3.00;;;;;;;;5057930;27;45472;-78
2022/10/15 02:29:52;;;;;;;;;4.00;3.00;;;;;;;;5059024;28;45375;-78
2022/10/15 02:32:19;;;;;;;;;2.00;2.00;;;;;;;;5092309;27;45891;-77
2022/10/15 02:34:45;;;;;;;;;4.00;3.00;;;;;;;;5080912;27;46256;-77
2022/10/15 02:37:12;;;;;;;;;1.25;1.25;;;;;;;;5079600;27;45362;-77
2022/10/15 02:39:38;;;;;;;;;3.00;3.00;;;;;;;;5074431;28;45571;-77
2022/10/15 02:42:04;;;;;;;;;3.25;3.00;;;;;;;;5085814;27;45880;-76
2022/10/15 02:44:29;;;;;;;;;3.75;2.00;;;;;;;;5078298;27;45352;-75
2022/10/15 02:46:56;;;;;;;;;2.50;2.50;;;;;;;;5066227;27;45754;-75
2022/10/15 02:49:21;;;;;;;;;3.00;2.25;;;;;;;;5085976;27;45743;-77
2022/10/15 02:51:47;;;;;;;;;2.00;2.00;;;;;;;;5084077;27;45415;-77
2022/10/15 02:54:12;;;;;;;;;4.00;3.00;;;;;;;;5099038;27;45698;-75
2022/10/15 02:56:38;;;;;;;;;4.00;4.00;;;;;;;;5080879;27;45724;-76
2022/10/15 02:59:04;;;;;;;;;4.50;2.75;;;;;;;;5091348;27;45385;-76
2022/10/15 03:01:30;;;;;;;;;5.50;4.50;;;;;;;;5091602;27;45436;-75
2022/10/15 03:03:55;;;;;;;;;4.00;3.00;;;;;;;;5086606;27;45469;-76
2022/10/15 03:06:20;;;;;;;;;1.00;1.00;;;;;;;;5085434;27;45762;-78
2022/10/15 03:08:46;;;;;;;;;3.25;3.00;;;;;;;;5086151;27;45461;-79
2022/10/15 03:11:11;;;;;;;;;3.00;3.00;;;;;;;;5077656;27;44928;-77
2022/10/15 03:13:37;;;;;;;;;4.50;2.50;;;;;;;;5099310;27;45964;-77
2022/10/15 03:16:06;;;;;;;;;2.00;2.00;;;;;;;;5079552;27;45897;-75
2022/10/15 03:18:32;;;;;;;;;2.50;2.50;;;;;;;;5039097;28;156749;-75
2022/10/15 03:20:58;;;;;;;;;1.00;1.00;;;;;;;;5099945;27;45788;-77
2022/10/15 03:23:24;;;;;;;;;3.25;3.25;;;;;;;;5082840;27;45617;-76
2022/10/15 03:25:51;;;;;;;;;2.00;1.00;;;;;;;;5061043;28;45375;-77
2022/10/15 03:28:16;;;;;;;;;1.00;1.00;;;;;;;;5074535;28;45523;-76
2022/10/15 03:30:42;;;;;;;;;2.25;1.00;;;;;;;;5094640;27;45371;-76
2022/10/15 03:33:08;;;;;;;;;0.50;0.50;;;;;;;;5063719;28;48312;-77
2022/10/15 03:35:34;;;;;;;;;0.50;0.50;;;;;;;;5094723;27;45626;-77
2022/10/15 03:37:59;;;;;;;;;0.25;0.25;;;;;;;;5089419;27;45487;-75
2022/10/15 03:40:24;;;;;;;;;0.50;0.50;;;;;;;;5080083;28;45660;-75
2022/10/15 03:42:51;;;;;;;;;1.00;1.00;;;;;;;;5085884;27;46126;-76
2022/10/15 03:45:17;;;;;;;;;1.25;0.00;;;;;;;;5086850;27;45339;-76
2022/10/15 03:47:43;;;;;;;;;0.00;0.00;;;;;;;;5091084;27;45284;-78
2022/10/15 03:50:08;;;;;;;;;0.00;0.00;;;;;;;;5052741;28;46764;-76
2022/10/15 03:52:35;;;;;;;;;0.25;0.25;;;;;;;;5091884;27;46516;-78
2022/10/15 03:55:00;;;;;;;;;0.00;0.00;;;;;;;;5081012;27;44756;-77
2022/10/15 03:57:26;;;;;;;;;0.00;0.00;;;;;;;;5081491;28;45620;-80
2022/10/15 03:59:51;;;;;;;;;0.00;0.00;;;;;;;;5082147;27;45397;-79
2022/10/15 04:02:30;;;;;;;;;0.00;0.00;;;;;;;;5077539;28;45529;-79
2022/10/15 04:04:57;;;;;;;;;0.00;0.00;;;;;;;;5074058;28;45414;-79
2022/10/15 04:07:23;;;;;;;;;0.00;0.00;;;;;;;;5081258;27;45884;-82
2022/10/15 04:09:49;;;;;;;;;0.00;0.00;;;;;;;;5068085;28;45422;-81
2022/10/15 04:12:15;;;;;;;;;1.00;0.00;;;;;;;;5081237;27;45960;-81
2022/10/15 04:14:41;;;;;;;;;2.00;0.00;;;;;;;;5078353;28;45481;-80
2022/10/15 04:17:07;;;;;;;;;0.00;0.00;;;;;;;;5079889;27;45276;-79
2022/10/15 04:19:32;;;;;;;;;0.25;0.00;;;;;;;;5062384;28;46489;-78
2022/10/15 04:21:59;;;;;;;;;0.00;0.00;;;;;;;;5081744;27;45449;-80
2022/10/15 04:24:24;;;;;;;;;0.00;0.00;;;;;;;;5077543;27;44815;-80
2022/10/15 04:26:50;;;;;;;;;0.00;0.00;;;;;;;;5080155;27;45548;-81
2022/10/15 04:29:19;;;;;;;;;1.00;0.00;;;;;;;;5079734;28;45484;-80
2022/10/15 04:31:45;;;;;;;;;0.00;0.00;;;;;;;;5076634;28;45543;-80
2022/10/15 04:34:11;;;;;;;;;0.00;0.00;;;;;;;;5078409;28;45768;-80
2022/10/15 04:36:37;;;;;;;;;0.00;0.00;;;;;;;;5057778;28;45494;-76
2022/10/15 04:39:05;;;;;;;;;0.00;0.00;;;;;;;;5069163;28;45457;-80
2022/10/15 04:41:30;;;;;;;;;0.00;0.00;;;;;;;;5075167;28;45284;-78
2022/10/15 04:43:56;;;;;;;;;0.00;0.00;;;;;;;;5059070;28;45515;-78
2022/10/15 04:46:22;;;;;;;;;0.00;0.00;;;;;;;;5059068;27;45497;-80
2022/10/15 04:48:48;;;;;;;;;0.00;0.00;;;;;;;;5052300;28;45309;-81
2022/10/15 04:51:13;;;;;;;;;0.50;0.00;;;;;;;;5072834;27;45847;-81
2022/10/15 04:53:39;;;;;;;;;1.50;0.00;;;;;;;;5074514;27;45498;-80
2022/10/15 04:56:07;;;;;;;;;0.00;0.00;;;;;;;;5075756;28;45324;-80
2022/10/15 04:58:34;;;;;;;;;1.00;0.00;;;;;;;;5078129;28;45525;-80
2022/10/15 05:01:07;;;;;;;;;0.75;0.75;;;;;;;;5076650;28;46381;-80
2022/10/15 05:03:34;;;;;;;;;1.25;0.00;;;;;;;;5073387;28;45544;-80
2022/10/15 05:06:05;;;;;;;;;0.50;0.00;;;;;;;;5070981;28;45623;-81
2022/10/15 05:08:36;;;;;;;;;2.50;1.75;;;;;;;;5076447;27;45448;-83
2022/10/15 05:11:25;;;;;;;;;0.00;0.00;;;;;;;;5083272;27;45432;-81
2022/10/15 05:13:52;;;;;;;;;1.50;0.00;;;;;;;;5074510;28;45439;-78
2022/10/15 05:16:22;;;;;;;;;2.00;1.00;;;;;;;;5083332;27;45410;-81
2022/10/15 05:18:56;;;;;;;;;0.25;0.25;;;;;;;;5042151;28;45620;-80
2022/10/15 05:21:24;;;;;;;;;1.00;0.25;;;;;;;;5046731;28;45340;-78
2022/10/15 05:23:50;;;;;;;;;1.75;1.00;;;;;;;;5058867;28;45911;-76
2022/10/15 05:26:22;;;;;;;;;0.00;0.00;;;;;;;;5045957;28;45834;-83
2022/10/15 05:28:49;;;;;;;;;1.00;0.00;;;;;;;;5059290;28;45676;-77
2022/10/15 05:31:22;;;;;;;;;0.00;0.00;;;;;;;;5059574;28;45787;-79
2022/10/15 05:33:51;;;;;;;;;0.00;0.00;;;;;;;;5048232;28;45365;-78
2022/10/15 05:36:23;;;;;;;;;0.00;0.00;;;;;;;;5060891;28;44836;-81
2022/10/15 05:38:59;;;;;;;;;0.00;0.00;;;;;;;;5055261;28;45613;-79
2022/10/15 05:41:24;;;;;;;;;0.75;0.00;;;;;;;;5052859;28;46513;-78
2022/10/15 05:43:50;;;;;;;;;0.00;0.00;;;;;;;;5055931;28;45569;-77
2022/10/15 05:46:16;;;;;;;;;1.00;0.00;;;;;;;;5055747;28;45925;-77
2022/10/15 05:48:41;;;;;;;;;0.75;0.00;;;;;;;;5036554;28;45943;-81
2022/10/15 05:51:16;;;;;;;;;0.75;0.00;;;;;;;;5057897;28;46794;-83
2022/10/15 05:53:47;;;;;;;;;0.00;0.00;;;;;;;;5060463;28;45753;-81
2022/10/15 05:56:15;;;;;;;;;0.00;0.00;;;;;;;;5056204;28;45384;-79
2022/10/15 05:58:40;;;;;;;;;0.75;0.75;;;;;;;;5040305;28;46067;-77
2022/10/15 06:01:08;;;;;;;;;3.00;2.00;;;;;;;;5059191;28;45755;-78
2022/10/15 06:03:33;;;;;;;;;0.00;0.00;;;;;;;;5045771;28;45392;-78
2022/10/15 06:06:00;;;;;;;;;1.25;0.50;;;;;;;;5060045;28;45786;-83
2022/10/15 06:08:27;;;;;;;;;1.00;1.00;;;;;;;;5059740;28;45915;-80
2022/10/15 06:10:52;;;;;;;;;0.00;0.00;;;;;;;;5051624;28;45395;-82
2022/10/15 06:13:17;;;;;;;;;1.00;1.00;;;;;;;;5055738;28;45515;-84
2022/10/15 06:15:44;;;;;;;;;0.25;0.25;;;;;;;;5046778;28;45746;-81
2022/10/15 06:18:11;;;;;;;;;0.00;0.00;;;;;;;;5090524;27;45426;-81
2022/10/15 06:20:37;;;;;;;;;1.00;1.00;;;;;;;;5078338;27;45487;-80
2022/10/15 06:23:04;;;;;;;;;0.00;0.00;;;;;;;;5074517;27;45571;-80
2022/10/15 06:25:30;;;;;;;;;0.00;0.00;;;;;;;;5085282;28;45540;-79
2022/10/15 06:27:59;;;;;;;;;1.25;1.25;;;;;;;;5083018;27;45841;-80
2022/10/15 06:30:25;;;;;;;;;1.75;1.50;;;;;;;;5073065;27;46769;-82
2022/10/15 06:32:51;;;;;;;;;2.25;0.25;;;;;;;;5069443;27;45934;-82
2022/10/15 06:35:18;;;;;;;;;0.25;0.25;;;;;;;;5061817;28;45847;-80
2022/10/15 06:37:47;;;;;;;;;0.00;0.00;;;;;;;;5050759;28;46224;-79
2022/10/15 06:40:20;;;;;;;;;0.00;0.00;;;;;;;;5037457;28;46753;-84
2022/10/15 06:42:47;;;;;;;;;2.00;0.00;;;;;;;;5041513;28;45518;-82
2022/10/15 06:48:54;;;;;;;;;0.50;0.50;;;;;;;;5081523;28;45318;-84
2022/10/15 06:51:20;;;;;;;;;0.50;0.00;;;;;;;;5070510;28;47318;-82
2022/10/15 06:53:50;;;;;;;;;0.00;0.00;;;;;;;;5093785;27;45451;-83
2022/10/15 06:56:16;;;;;;;;;0.00;0.00;;;;;;;;5080509;27;45355;-83
2022/10/15 06:58:48;;;;;;;;;0.00;0.00;;;;;;;;5088106;28;45429;-82
2022/10/15 07:01:18;;;;;;;;;0.00;0.00;;;;;;;;5084722;28;45758;-85
2022/10/15 07:03:53;;;;;;;;;0.00;0.00;;;;;;;;5081665;28;45509;-84
2022/10/15 07:06:19;;;;;;;;;0.00;0.00;;;;;;;;5079684;27;45540;-81
2022/10/15 07:08:47;;;;;;;;;0.00;0.00;;;;;;;;5070982;28;45378;-81
2022/10/15 07:11:18;;;;;;;;;0.00;0.00;;;;;;;;5078046;28;45460;-81
2022/10/15 07:13:47;;;;;;;;;0.00;0.00;;;;;;;;5065601;28;45242;-78
2022/10/15 07:16:12;;;;;;;;;0.25;0.25;;;;;;;;5073303;27;45426;-76
2022/10/15 07:18:38;;;;;;;;;1.00;0.00;;;;;;;;5073327;27;45707;-75
2022/10/15 07:21:04;;;;;;;;;0.00;0.00;;;;;;;;5072404;28;45697;-77
2022/10/15 07:23:30;;;;;;;;;1.50;0.00;;;;;;;;5080018;27;45532;-77
2022/10/15 07:25:59;;;;;;;;;0.00;0.00;;;;;;;;5069463;28;45785;-77
2022/10/15 07:28:25;;;;;;;;;0.00;0.00;;;;;;;;5080668;28;45445;-76
2022/10/15 07:30:51;;;;;;;;;0.75;0.00;;;;;;;;5084294;27;45568;-79
2022/10/15 07:33:17;;;;;;;;;0.00;0.00;;;;;;;;5065570;28;45395;-78
2022/10/15 07:35:43;;;;;;;;;1.00;0.00;;;;;;;;5071811;27;45361;-77
2022/10/15 07:38:12;;;;;;;;;0.00;0.00;;;;;;;;5065365;27;47130;-76
2022/10/15 07:40:37;;;;;;;;;0.00;0.00;;;;;;;;5075832;27;46197;-80
2022/10/15 07:43:03;;;;;;;;;0.50;0.50;;;;;;;;5069668;28;45703;-80
2022/10/15 07:45:30;;;;;;;;;0.25;0.00;;;;;;;;5065579;28;45715;-79
2022/10/15 07:47:56;;;;;;;;;0.00;0.00;;;;;;;;5080342;27;45462;-77
2022/10/15 07:50:21;;;;;;;;;0.00;0.00;;;;;;;;5083080;28;45651;-79
2022/10/15 07:52:48;;;;;;;;;0.00;0.00;;;;;;;;5064731;27;45348;-80
2022/10/15 07:55:14;;;;;;;;;0.00;0.00;;;;;;;;5094538;27;45444;-80
2022/10/15 07:57:39;;;;;;;;;0.00;0.00;;;;;;;;5076268;28;45386;-75
2022/10/15 08:00:05;;;;;;;;;0.00;0.00;;;;;;;;5070522;28;46519;-78
2022/10/15 08:02:30;;;;;;;;;0.00;0.00;;;;;;;;5059538;28;45541;-79
2022/10/15 08:04:55;;;;;;;;;0.00;0.00;;;;;;;;5074816;28;45704;-78
2022/10/15 08:07:21;;;;;;;;;0.00;0.00;;;;;;;;5056502;28;45846;-76
2022/10/15 08:09:46;;;;;;;;;0.00;0.00;;;;;;;;5066940;28;45516;-76
2022/10/15 08:12:11;;;;;;;;;0.00;0.00;;;;;;;;5069464;27;45461;-78
2022/10/15 08:14:37;;;;;;;;;0.00;0.00;;;;;;;;5065886;27;45911;-79
2022/10/15 08:17:04;;;;;;;;;0.00;0.00;;;;;;;;5059465;27;45811;-78
2022/10/15 08:19:29;;;;;;;;;0.00;0.00;;;;;;;;5061220;28;45387;-77
2022/10/15 08:21:56;;;;;;;;;0.00;0.00;;;;;;;;5074871;27;45520;-77
2022/10/15 08:24:22;;;;;;;;;0.00;0.00;;;;;;;;5069083;27;45423;-77
2022/10/15 08:26:48;;;;;;;;;0.75;0.00;;;;;;;;5055593;28;45292;-76
2022/10/15 08:29:13;;;;;;;;;1.00;0.00;;;;;;;;5058825;28;47378;-75
2022/10/15 08:31:39;;;;;;;;;0.00;0.00;;;;;;;;5058868;28;45441;-78
2022/10/15 08:34:05;;;;;;;;;1.75;0.50;;;;;;;;5076326;27;45978;-78
2022/10/15 08:36:31;;;;;;;;;1.50;1.50;;;;;;;;5071322;27;45378;-79
2022/10/15 08:38:57;;;;;;;;;0.00;0.00;;;;;;;;5073883;27;46548;-78
2022/10/15 08:41:32;;;;;;;;;0.00;0.00;;;;;;;;5060516;28;45381;-78
2022/10/15 08:43:57;;;;;;;;;0.00;0.00;;;;;;;;5074824;27;44976;-76
2022/10/15 08:46:43;;;;;;;;;0.00;0.00;;;;;;;;5072311;28;45807;-76
2022/10/15 08:49:32;;;;;;;;;0.00;0.00;;;;;;;;5068776;28;46925;-76
2022/10/15 08:52:02;;;;;;;;;0.00;0.00;;;;;;;;5068126;28;45544;-76
2022/10/15 08:54:31;;;;;;;;;0.00;0.00;;;;;;;;5071541;27;44754;-75
2022/10/15 08:57:05;;;;;;;;;1.00;0.00;;;;;;;;5077239;27;45441;-77
2022/10/15 08:59:38;;;;;;;;;2.00;0.00;;;;;;;;5075803;27;45688;-77
2022/10/15 09:02:18;;;;;;;;;0.00;0.00;;;;;;;;5058200;28;45855;-79
2022/10/15 09:04:53;;;;;;;;;0.00;0.00;;;;;;;;5070496;28;45374;-80
2022/10/15 09:07:24;;;;;;;;;0.00;0.00;;;;;;;;5057578;27;46623;-78
2022/10/15 09:09:52;;;;;;;;;0.50;0.50;;;;;;;;5058899;28;46831;-78
2022/10/15 09:12:18;;;;;;;;;0.00;0.00;;;;;;;;5075159;27;45465;-77
2022/10/15 09:14:45;;;;;;;;;0.00;0.00;;;;;;;;5077817;28;45413;-77
2022/10/15 09:17:17;;;;;;;;;0.00;0.00;;;;;;;;5081897;27;45585;-80
2022/10/15 09:19:44;;;;;;;;;0.00;0.00;;;;;;;;5062369;28;47260;-81
2022/10/15 09:22:16;;;;;;;;;0.00;0.00;;;;;;;;5077245;27;45478;-81
2022/10/15 09:24:44;;;;;;;;;0.00;0.00;;;;;;;;5067048;28;45633;-79
2022/10/15 09:27:31;;;;;;;;;0.75;0.75;;;;;;;;5075034;27;45444;-78
2022/10/15 09:29:56;;;;;;;;;0.50;0.00;;;;;;;;5072027;28;45986;-79
2022/10/15 09:32:26;;;;;;;;;0.25;0.25;;;;;;;;5060019;28;45475;-81
2022/10/15 09:35:11;;;;;;;;;1.00;0.00;;;;;;;;5076239;28;45734;-81
2022/10/15 09:37:55;;;;;;;;;2.25;1.00;;;;;;;;5066038;28;45434;-80
2022/10/15 09:40:23;;;;;;;;;0.25;0.00;;;;;;;;5054113;28;45829;-82
2022/10/15 09:42:50;;;;;;;;;0.20;0.20;;;;;;;;5057131;28;45825;-80
2022/10/15 09:45:16;;;;;;;;;2.00;2.00;;;;;;;;5080154;27;45870;-81
2022/10/15 09:47:42;;;;;;;;;0.75;0.75;;;;;;;;5073121;27;45647;-79
2022/10/15 09:50:11;;;;;;;;;2.00;0.00;;;;;;;;5079497;27;46558;-81
2022/10/15 09:52:55;;;;;;;;;0.00;0.00;;;;;;;;5077061;28;45766;-81
2022/10/15 09:55:27;;;;;;;;;0.00;0.00;;;;;;;;5070694;28;45431;-80
2022/10/15 09:57:57;;;;;;;;;1.00;0.00;;;;;;;;5081262;27;45781;-81
2022/10/15 10:00:24;;;;;;;;;13.00;8.75;;;;;;;;5075336;27;46240;-81
2022/10/15 10:03:18;;;;;;;;;3.50;2.25;;;;;;;;5061542;27;45367;-80
2022/10/15 10:15:24;;;;;;;;;1.00;0.00;;;;;;;;5019766;28;45135;-81
2022/10/15 10:21:41;;;;;;;;;0.00;0.00;;;;;;;;5010136;28;45715;-79
2022/10/15 10:24:27;;;;;;;;;5.75;4.00;;;;;;;;4953491;28;45776;-80
2022/10/15 10:26:53;;;;;;;;;0.00;0.00;;;;;;;;5050980;28;45708;-82
2022/10/15 10:29:20;;;;;;;;;1.00;1.00;;;;;;;;5070422;28;45545;-81
2022/10/15 10:31:50;;;;;;;;;0.50;0.50;;;;;;;;5066786;28;45686;-81
2022/10/15 10:34:16;;;;;;;;;5.75;5.75;;;;;;;;5071271;28;46648;-81
2022/10/15 10:36:47;;;;;;;;;2.75;1.00;;;;;;;;5058277;27;45895;-80
2022/10/15 10:39:19;;;;;;;;;0.25;0.00;;;;;;;;5080934;27;45233;-79
2022/10/15 10:41:51;;;;;;;;;0.50;0.00;;;;;;;;5076449;27;45531;-80
2022/10/15 10:44:30;;;;;;;;;1.00;1.00;;;;;;;;5074185;27;47111;-88
2022/10/15 10:47:05;;;;;;;;;1.00;0.00;;;;;;;;5063106;27;45395;-79
2022/10/15 10:59:13;;;;;;;;;0.00;0.00;;;;;;;;4948919;28;46005;-81
2022/10/15 11:11:06;;;;;;;;;0.00;0.00;;;;;;;;5038336;28;45329;-81
2022/10/15 11:14:16;;;;;;;;;0.00;0.00;;;;;;;;5026878;28;45943;-81
2022/10/15 11:17:15;;;;;;;;;1.00;0.00;;;;;;;;5035035;28;45542;-85
2022/10/15 11:19:49;;;;;;;;;2.00;0.75;;;;;;;;5035470;28;45542;-80
2022/10/15 11:22:53;;;;;;;;;0.00;0.00;;;;;;;;5042346;28;45455;-81
2022/10/15 11:25:24;;;;;;;;;10.75;9.25;;;;;;;;5061432;27;45434;-79
2022/10/15 11:28:03;;;;;;;;;42.00;35.33;;;;;;;;5066734;28;45815;-80
2022/10/15 11:30:35;;;;;;;;;4.75;4.00;;;;;;;;5074868;28;46151;-78
2022/10/15 11:33:22;;;;;;;;;5.00;3.50;;;;;;;;5057623;28;45630;-81
2022/10/15 11:36:20;;;;;;;;;2.75;0.25;;;;;;;;5074570;28;45912;-81
2022/10/15 11:39:17;;;;;;;;;;;;;;;;;;;;;
2022/10/15 11:41:52;;;;;;;;;0.00;0.00;;;;;;;;5076286;27;76947;-77
2022/10/15 11:44:50;;;;;;;;;0.00;0.00;;;;;;;;5072920;28;45623;-78
2022/10/15 11:47:23;;;;;;;;;0.50;0.00;;;;;;;;5034668;28;45328;-77
2022/10/15 11:50:07;;;;;;;;;0.00;0.00;;;;;;;;5077576;27;45399;-79
2022/10/15 11:52:44;;;;;;;;;0.00;0.00;;;;;;;;5070527;28;46216;-78
2022/10/15 11:55:12;;;;;;;;;0.00;0.00;;;;;;;;5071657;27;45975;-78
2022/10/15 11:57:39;;;;;;;;;0.00;0.00;;;;;;;;5069904;27;45562;-76
2022/10/15 12:00:24;;;;;;;;;0.50;0.00;;;;;;;;5072809;27;45481;-77
2022/10/15 12:02:51;;;;;;;;;0.00;0.00;;;;;;;;5062968;27;45482;-78
2022/10/15 12:05:19;;;;;;;;;0.75;0.75;;;;;;;;5077052;27;45846;-78
2022/10/15 12:07:45;;;;;;;;;4.50;3.50;;;;;;;;5073614;27;45488;-78
2022/10/15 12:10:11;;;;;;;;;0.00;0.00;;;;;;;;5075752;28;45880;-78
2022/10/15 12:12:55;;;;;;;;;1.00;0.00;;;;;;;;5053984;27;45498;-77
2022/10/15 12:15:41;;;;;;;;;0.25;0.25;;;;;;;;5075230;28;45845;-77
2022/10/15 12:18:19;;;;;;;;;0.25;0.25;;;;;;;;5056458;28;45982;-77
2022/10/15 12:20:45;;;;;;;;;2.00;2.00;;;;;;;;5054626;28;46640;-77
2022/10/15 12:23:25;;;;;;;;;0.75;0.75;;;;;;;;5064552;27;45425;-76
2022/10/15 12:25:50;;;;;;;;;0.50;0.00;;;;;;;;5071341;27;45730;-77
2022/10/15 12:28:16;;;;;;;;;2.00;0.50;;;;;;;;5056329;28;46785;-76
2022/10/15 12:30:42;;;;;;;;;0.50;0.00;;;;;;;;5073851;27;45549;-79
2022/10/15 12:33:25;;;;;;;;;0.00;0.00;;;;;;;;5067890;28;45827;-77
2022/10/15 12:35:56;;;;;;;;;0.00;0.00;;;;;;;;5079941;27;45457;-82
2022/10/15 12:38:24;;;;;;;;;0.00;0.00;;;;;;;;5075501;28;45553;-78
2022/10/15 12:40:57;;;;;;;;;0.00;0.00;;;;;;;;5056084;28;47143;-79
2022/10/15 12:43:24;;;;;;;;;0.00;0.00;;;;;;;;5073522;27;45184;-78
2022/10/15 12:46:00;;;;;;;;;0.00;0.00;;;;;;;;5089229;27;45806;-79
2022/10/15 12:48:30;;;;;;;;;0.00;0.00;;;;;;;;5072828;28;45510;-79
2022/10/15 12:51:14;;;;;;;;;0.00;0.00;;;;;;;;5080764;27;45454;-77
2022/10/15 12:53:43;;;;;;;;;0.25;0.25;;;;;;;;5051519;28;47245;-77
2022/10/15 12:56:12;;;;;;;;;0.00;0.00;;;;;;;;5047933;28;45718;-78
2022/10/15 12:58:41;;;;;;;;;0.00;0.00;;;;;;;;5083951;27;45847;-78
2022/10/15 13:01:13;;;;;;;;;0.00;0.00;;;;;;;;5079379;28;45522;-79
2022/10/15 13:03:40;;;;;;;;;0.00;0.00;;;;;;;;5073377;28;45504;-78
2022/10/15 13:06:47;;;;;;;;;0.00;0.00;;;;;;;;5088927;27;45433;-79
2022/10/15 13:09:26;;;;;;;;;0.75;0.00;;;;;;;;5005004;28;44762;-79
2022/10/15 13:11:52;;;;;;;;;0.75;0.00;;;;;;;;5016382;28;45484;-77
2022/10/15 13:14:53;;;;;;;;;0.75;0.00;;;;;;;;5020543;28;46889;-75
2022/10/15 13:17:36;;;;;;;;;0.00;0.00;;;;;;;;5001041;28;46183;-78
2022/10/15 13:20:09;;;;;;;;;0.00;0.00;;;;;;;;5024663;28;45856;-77
2022/10/15 13:22:37;;;;;;;;;0.75;0.75;;;;;;;;5004216;28;45942;-79
2022/10/15 13:25:04;;;;;;;;;1.00;1.00;;;;;;;;5042407;27;45750;-79
2022/10/15 13:27:36;;;;;;;;;0.00;0.00;;;;;;;;5087264;27;45609;-79
2022/10/15 13:30:13;;;;;;;;;0.00;0.00;;;;;;;;5081507;28;45782;-78
2022/10/15 13:32:46;;;;;;;;;0.00;0.00;;;;;;;;5058132;28;45352;-77
2022/10/15 13:35:17;;;;;;;;;1.00;0.00;;;;;;;;5057150;28;46154;-78
2022/10/15 13:37:52;;;;;;;;;0.00;0.00;;;;;;;;5068920;28;45433;-78
2022/10/15 13:40:29;;;;;;;;;0.00;0.00;;;;;;;;5075270;27;45959;-77
2022/10/15 13:42:59;;;;;;;;;0.00;0.00;;;;;;;;5082997;27;45378;-79
2022/10/15 13:45:24;;;;;;;;;0.00;0.00;;;;;;;;5081554;27;46311;-78
2022/10/15 13:47:53;;;;;;;;;1.00;1.00;;;;;;;;5084157;27;44831;-80
2022/10/15 13:50:30;;;;;;;;;0.00;0.00;;;;;;;;5075119;27;44835;-81
2022/10/15 13:53:13;;;;;;;;;0.00;0.00;;;;;;;;5084683;27;45506;-80
2022/10/15 13:55:44;;;;;;;;;0.00;0.00;;;;;;;;5080068;28;46221;-80
2022/10/15 13:58:13;;;;;;;;;1.00;1.00;;;;;;;;5066085;28;44820;-81
2022/10/15 14:00:38;;;;;;;;;1.00;0.00;;;;;;;;5083367;27;45797;-81
2022/10/15 14:03:10;;;;;;;;;0.50;0.50;;;;;;;;5068789;28;45789;-80
2022/10/15 14:05:35;;;;;;;;;1.00;0.00;;;;;;;;5060036;28;46852;-79
2022/10/15 14:08:01;;;;;;;;;0.75;0.75;;;;;;;;5080461;27;45598;-80
2022/10/15 14:10:26;;;;;;;;;0.00;0.00;;;;;;;;5081707;28;45736;-81
2022/10/15 14:12:51;;;;;;;;;0.00;0.00;;;;;;;;5080466;27;45479;-75
2022/10/15 14:15:36;;;;;;;;;0.00;0.00;;;;;;;;5063727;28;46214;-75
2022/10/15 14:18:01;;;;;;;;;1.00;0.00;;;;;;;;5051976;28;45532;-81
2022/10/15 14:20:27;;;;;;;;;0.00;0.00;;;;;;;;5054395;28;46033;-81
2022/10/15 14:22:52;;;;;;;;;0.00;0.00;;;;;;;;5042786;28;45509;-81
2022/10/15 14:25:22;;;;;;;;;1.00;0.00;;;;;;;;5055057;28;45831;-79
2022/10/15 14:27:47;;;;;;;;;0.00;0.00;;;;;;;;5057149;28;45455;-82
2022/10/15 14:30:14;;;;;;;;;0.00;0.00;;;;;;;;5061929;28;45576;-81
2022/10/15 14:32:46;;;;;;;;;0.00;0.00;;;;;;;;5036929;28;46084;-79
2022/10/15 14:35:44;;;;;;;;;0.00;0.00;;;;;;;;5041915;28;47274;-79
2022/10/15 14:38:10;;;;;;;;;0.00;0.00;;;;;;;;5008795;28;45670;-80
2022/10/15 14:40:35;;;;;;;;;0.00;0.00;;;;;;;;5064670;28;45565;-80
2022/10/15 14:43:04;;;;;;;;;0.00;0.00;;;;;;;;5035983;28;45491;-80
2022/10/15 14:45:40;;;;;;;;;0.00;0.00;;;;;;;;5045067;28;46416;-80
2022/10/15 14:48:16;;;;;;;;;0.00;0.00;;;;;;;;5070298;28;45348;-80
2022/10/15 14:50:43;;;;;;;;;0.00;0.00;;;;;;;;5037224;28;45576;-78
2022/10/15 14:53:10;;;;;;;;;0.00;0.00;;;;;;;;5060717;28;45953;-80
2022/10/15 14:55:41;;;;;;;;;0.00;0.00;;;;;;;;5056563;28;45529;-80
2022/10/15 14:58:08;;;;;;;;;0.00;0.00;;;;;;;;5045726;28;45831;-80
2022/10/15 15:00:44;;;;;;;;;0.00;0.00;;;;;;;;5054329;28;45468;-80
2022/10/15 15:03:13;;;;;;;;;2.00;0.00;;;;;;;;5041271;28;44864;-79
2022/10/15 15:05:52;;;;;;;;;0.00;0.00;;;;;;;;5058201;28;47023;-80
2022/10/15 15:08:17;;;;;;;;;0.00;0.00;;;;;;;;5045513;28;45424;-79
2022/10/15 15:10:43;;;;;;;;;0.00;0.00;;;;;;;;5064827;28;45841;-81
2022/10/15 15:13:10;;;;;;;;;0.00;0.00;;;;;;;;5043284;28;46569;-76
2022/10/15 15:15:35;;;;;;;;;0.00;0.00;;;;;;;;5060431;28;45848;-74
2022/10/15 15:18:01;;;;;;;;;0.00;0.00;;;;;;;;5072916;27;45517;-75
2022/10/15 15:20:27;;;;;;;;;0.25;0.25;;;;;;;;5076109;27;45731;-75
2022/10/15 15:22:55;;;;;;;;;0.00;0.00;;;;;;;;5078552;27;45919;-80
2022/10/15 15:25:30;;;;;;;;;0.00;0.00;;;;;;;;5094576;27;46605;-80
2022/10/15 15:28:20;;;;;;;;;0.00;0.00;;;;;;;;5083079;28;45604;-82
2022/10/15 15:31:01;;;;;;;;;0.50;0.00;;;;;;;;5061510;28;45445;-79
2022/10/15 15:33:45;;;;;;;;;0.00;0.00;;;;;;;;5071531;28;45770;-81
2022/10/15 15:36:13;;;;;;;;;0.00;0.00;;;;;;;;5080325;28;46204;-80